sensor_id;sensor_type;location;lat;lon;timestamp;temperature;humidity
38359;DHT22;42072;48.044;14.416;2024-03-29T00:01:55;2.90;99.90
38359;DHT22;42072;48.044;14.416;2024-03-29T00:04:21;2.80;99.90
38359;DHT22;42072;48.044;14.416;2024-03-29T00:07:05;2.80;1.00
38359;DHT22;42072;48.044;14.416;2024-03-29T00:09:31;2.80;1.00
38359;DHT22;42072;48.044;14.416;2024-03-29T00:11:57;2.70;1.00
38359;DHT22;42072;48.044;14.416;2024-03-29T00:14:41;2.70;1.00
38359;DHT22;42072;48.044;14.416;2024-03-29T00:17:28;2.80;1.00
38359;DHT22;42072;48.044;14.416;2024-03-29T00:19:54;2.80;1.00
38359;DHT22;42072;48.044;14.416;2024-03-29T00:22:20;2.80;1.00
38359;DHT22;42072;48.044;14.416;2024-03-29T00:24:46;2.80;1.00
38359;DHT22;42072;48.044;14.416;2024-03-29T00:27:12;2.70;1.00
38359;DHT22;42072;48.044;14.416;2024-03-29T00:29:37;2.70;1.00
38359;DHT22;42072;48.044;14.416;2024-03-29T00:32:04;2.70;1.00
38359;DHT22;42072;48.044;14.416;2024-03-29T00:34:30;2.70;1.00
38359;DHT22;42072;48.044;14.416;2024-03-29T00:36:56;2.60;1.00
38359;DHT22;42072;48.044;14.416;2024-03-29T00:39:22;2.60;1.00
38359;DHT22;42072;48.044;14.416;2024-03-29T00:41:48;2.70;1.00
38359;DHT22;42072;48.044;14.416;2024-03-29T00:44:14;2.70;1.00
38359;DHT22;42072;48.044;14.416;2024-03-29T00:46:40;2.60;1.00
38359;DHT22;42072;48.044;14.416;2024-03-29T00:49:06;2.60;1.00
38359;DHT22;42072;48.044;14.416;2024-03-29T00:51:32;2.50;1.00
38359;DHT22;42072;48.044;14.416;2024-03-29T00:54:16;2.50;1.00
38359;DHT22;42072;48.044;14.416;2024-03-29T00:56:44;2.40;1.00
38359;DHT22;42072;48.044;14.416;2024-03-29T00:59:10;2.40;1.00
38359;DHT22;42072;48.044;14.416;2024-03-29T01:01:37;2.40;1.00
38359;DHT22;42072;48.044;14.416;2024-03-29T01:04:04;2.40;1.00
38359;DHT22;42072;48.044;14.416;2024-03-29T01:09:14;2.30;1.00
38359;DHT22;42072;48.044;14.416;2024-03-29T01:11:40;2.30;1.00
38359;DHT22;42072;48.044;14.416;2024-03-29T01:14:06;2.30;1.00
38359;DHT22;42072;48.044;14.416;2024-03-29T01:16:50;2.20;1.00
38359;DHT22;42072;48.044;14.416;2024-03-29T01:19:34;2.20;1.00
38359;DHT22;42072;48.044;14.416;2024-03-29T01:22:00;2.20;1.00
38359;DHT22;42072;48.044;14.416;2024-03-29T01:24:26;2.10;1.00
38359;DHT22;42072;48.044;14.416;2024-03-29T01:27:11;2.10;1.00
38359;DHT22;42072;48.044;14.416;2024-03-29T01:29:37;2.00;1.00
38359;DHT22;42072;48.044;14.416;2024-03-29T01:32:03;2.00;1.00
38359;DHT22;42072;48.044;14.416;2024-03-29T01:34:29;2.00;1.00
38359;DHT22;42072;48.044;14.416;2024-03-29T01:36:55;2.00;1.00
38359;DHT22;42072;48.044;14.416;2024-03-29T01:39:21;2.10;1.00
38359;DHT22;42072;48.044;14.416;2024-03-29T01:41:52;2.10;1.00
38359;DHT22;42072;48.044;14.416;2024-03-29T01:44:18;2.00;1.00
38359;DHT22;42072;48.044;14.416;2024-03-29T01:46:44;2.00;1.00
38359;DHT22;42072;48.044;14.416;2024-03-29T01:49:12;2.00;1.00
38359;DHT22;42072;48.044;14.416;2024-03-29T01:51:38;1.90;1.00
38359;DHT22;42072;48.044;14.416;2024-03-29T01:54:26;1.90;1.00
38359;DHT22;42072;48.044;14.416;2024-03-29T01:56:52;1.90;1.00
38359;DHT22;42072;48.044;14.416;2024-03-29T01:59:36;1.90;1.00
38359;DHT22;42072;48.044;14.416;2024-03-29T02:02:03;1.90;1.00
38359;DHT22;42072;48.044;14.416;2024-03-29T02:04:29;1.80;1.00
38359;DHT22;42072;48.044;14.416;2024-03-29T02:06:55;1.80;1.00
38359;DHT22;42072;48.044;14.416;2024-03-29T02:09:21;1.80;1.00
38359;DHT22;42072;48.044;14.416;2024-03-29T02:11:47;1.70;1.00
38359;DHT22;42072;48.044;14.416;2024-03-29T02:14:13;1.70;1.00
38359;DHT22;42072;48.044;14.416;2024-03-29T02:16:39;1.70;1.00
38359;DHT22;42072;48.044;14.416;2024-03-29T02:19:05;1.70;1.00
38359;DHT22;42072;48.044;14.416;2024-03-29T02:21:31;1.70;1.00
38359;DHT22;42072;48.044;14.416;2024-03-29T02:24:06;1.70;1.00
38359;DHT22;42072;48.044;14.416;2024-03-29T02:26:32;1.70;1.00
38359;DHT22;42072;48.044;14.416;2024-03-29T02:29:02;1.70;1.00
38359;DHT22;42072;48.044;14.416;2024-03-29T02:31:29;1.70;1.00
38359;DHT22;42072;48.044;14.416;2024-03-29T02:33:55;1.70;1.00
38359;DHT22;42072;48.044;14.416;2024-03-29T02:36:20;1.70;1.00
38359;DHT22;42072;48.044;14.416;2024-03-29T02:39:05;1.70;1.00
38359;DHT22;42072;48.044;14.416;2024-03-29T02:41:49;1.70;1.00
38359;DHT22;42072;48.044;14.416;2024-03-29T02:44:15;1.70;1.00
38359;DHT22;42072;48.044;14.416;2024-03-29T02:46:44;1.70;1.00
38359;DHT22;42072;48.044;14.416;2024-03-29T02:49:10;1.60;1.00
38359;DHT22;42072;48.044;14.416;2024-03-29T02:51:36;1.60;1.00
38359;DHT22;42072;48.044;14.416;2024-03-29T02:54:02;1.50;1.00
38359;DHT22;42072;48.044;14.416;2024-03-29T02:56:28;1.40;1.00
38359;DHT22;42072;48.044;14.416;2024-03-29T02:58:54;1.50;1.00
38359;DHT22;42072;48.044;14.416;2024-03-29T03:01:21;1.80;1.00
38359;DHT22;42072;48.044;14.416;2024-03-29T03:03:47;2.00;1.00
38359;DHT22;42072;48.044;14.416;2024-03-29T03:06:31;2.00;1.00
38359;DHT22;42072;48.044;14.416;2024-03-29T03:08:57;1.90;1.00
38359;DHT22;42072;48.044;14.416;2024-03-29T03:12:00;2.00;1.00
38359;DHT22;42072;48.044;14.416;2024-03-29T03:14:45;2.10;1.00
38359;DHT22;42072;48.044;14.416;2024-03-29T03:17:11;2.10;1.00
38359;DHT22;42072;48.044;14.416;2024-03-29T03:19:37;2.10;1.00
38359;DHT22;42072;48.044;14.416;2024-03-29T03:22:03;2.10;1.00
38359;DHT22;42072;48.044;14.416;2024-03-29T03:24:29;2.10;1.00
38359;DHT22;42072;48.044;14.416;2024-03-29T03:26:55;2.10;1.00
38359;DHT22;42072;48.044;14.416;2024-03-29T03:29:20;2.10;1.00
38359;DHT22;42072;48.044;14.416;2024-03-29T03:32:05;2.00;1.00
38359;DHT22;42072;48.044;14.416;2024-03-29T03:34:32;1.90;1.00
38359;DHT22;42072;48.044;14.416;2024-03-29T03:37:17;1.90;1.00
38359;DHT22;42072;48.044;14.416;2024-03-29T03:39:43;1.90;1.00
38359;DHT22;42072;48.044;14.416;2024-03-29T03:42:09;1.80;1.00
38359;DHT22;42072;48.044;14.416;2024-03-29T03:44:35;1.80;1.00
38359;DHT22;42072;48.044;14.416;2024-03-29T03:47:01;1.80;1.00
38359;DHT22;42072;48.044;14.416;2024-03-29T03:49:45;1.80;1.00
38359;DHT22;42072;48.044;14.416;2024-03-29T03:52:11;1.90;1.00
38359;DHT22;42072;48.044;14.416;2024-03-29T03:54:55;1.80;1.00
38359;DHT22;42072;48.044;14.416;2024-03-29T03:57:21;1.80;1.00
38359;DHT22;42072;48.044;14.416;2024-03-29T04:00:06;1.70;1.00
38359;DHT22;42072;48.044;14.416;2024-03-29T04:02:51;1.80;1.00
38359;DHT22;42072;48.044;14.416;2024-03-29T04:05:20;1.80;1.00
38359;DHT22;42072;48.044;14.416;2024-03-29T04:07:46;1.90;1.00
38359;DHT22;42072;48.044;14.416;2024-03-29T04:10:13;1.90;1.00
38359;DHT22;42072;48.044;14.416;2024-03-29T04:12:39;1.90;1.00
38359;DHT22;42072;48.044;14.416;2024-03-29T04:15:05;1.90;1.00
38359;DHT22;42072;48.044;14.416;2024-03-29T04:17:31;1.90;1.00
38359;DHT22;42072;48.044;14.416;2024-03-29T04:19:58;1.80;1.00
38359;DHT22;42072;48.044;14.416;2024-03-29T04:22:25;1.70;1.00
38359;DHT22;42072;48.044;14.416;2024-03-29T04:24:53;1.80;1.00
38359;DHT22;42072;48.044;14.416;2024-03-29T04:27:37;1.80;1.00
38359;DHT22;42072;48.044;14.416;2024-03-29T04:30:03;1.70;1.00
38359;DHT22;42072;48.044;14.416;2024-03-29T04:32:48;1.70;1.00
38359;DHT22;42072;48.044;14.416;2024-03-29T04:35:14;1.80;1.00
38359;DHT22;42072;48.044;14.416;2024-03-29T04:37:40;1.80;1.00
38359;DHT22;42072;48.044;14.416;2024-03-29T04:40:06;1.90;1.00
38359;DHT22;42072;48.044;14.416;2024-03-29T04:42:32;1.90;1.00
38359;DHT22;42072;48.044;14.416;2024-03-29T04:44:58;1.90;1.00
38359;DHT22;42072;48.044;14.416;2024-03-29T04:47:24;1.90;1.00
38359;DHT22;42072;48.044;14.416;2024-03-29T04:49:50;1.90;1.00
38359;DHT22;42072;48.044;14.416;2024-03-29T04:52:16;1.90;1.00
38359;DHT22;42072;48.044;14.416;2024-03-29T04:54:42;2.00;1.00
38359;DHT22;42072;48.044;14.416;2024-03-29T04:57:10;2.00;1.00
38359;DHT22;42072;48.044;14.416;2024-03-29T04:59:38;2.00;1.00
38359;DHT22;42072;48.044;14.416;2024-03-29T05:02:04;2.00;1.00
38359;DHT22;42072;48.044;14.416;2024-03-29T05:04:30;2.00;1.00
38359;DHT22;42072;48.044;14.416;2024-03-29T05:06:57;1.90;1.00
38359;DHT22;42072;48.044;14.416;2024-03-29T05:09:24;1.80;1.00
38359;DHT22;42072;48.044;14.416;2024-03-29T05:11:50;1.80;1.00
38359;DHT22;42072;48.044;14.416;2024-03-29T05:14:17;1.70;1.00
38359;DHT22;42072;48.044;14.416;2024-03-29T05:16:46;1.70;1.00
38359;DHT22;42072;48.044;14.416;2024-03-29T05:19:13;1.70;1.00
38359;DHT22;42072;48.044;14.416;2024-03-29T05:21:40;1.70;1.00
38359;DHT22;42072;48.044;14.416;2024-03-29T05:24:06;1.60;1.00
38359;DHT22;42072;48.044;14.416;2024-03-29T05:26:33;1.60;1.00
38359;DHT22;42072;48.044;14.416;2024-03-29T05:29:00;1.60;1.00
38359;DHT22;42072;48.044;14.416;2024-03-29T05:31:26;1.60;1.00
38359;DHT22;42072;48.044;14.416;2024-03-29T05:33:53;1.60;1.00
38359;DHT22;42072;48.044;14.416;2024-03-29T05:36:19;1.70;1.00
38359;DHT22;42072;48.044;14.416;2024-03-29T05:39:03;1.80;1.00
38359;DHT22;42072;48.044;14.416;2024-03-29T05:41:29;2.00;1.00
38359;DHT22;42072;48.044;14.416;2024-03-29T05:43:57;2.00;1.00
38359;DHT22;42072;48.044;14.416;2024-03-29T05:46:23;2.10;1.00
38359;DHT22;42072;48.044;14.416;2024-03-29T05:48:49;2.20;1.00
38359;DHT22;42072;48.044;14.416;2024-03-29T05:51:15;2.20;1.00
38359;DHT22;42072;48.044;14.416;2024-03-29T05:53:41;2.30;1.00
38359;DHT22;42072;48.044;14.416;2024-03-29T05:56:07;2.50;1.00
38359;DHT22;42072;48.044;14.416;2024-03-29T05:58:34;2.60;1.00
38359;DHT22;42072;48.044;14.416;2024-03-29T06:01:00;2.70;1.00
38359;DHT22;42072;48.044;14.416;2024-03-29T06:03:44;2.90;1.00
38359;DHT22;42072;48.044;14.416;2024-03-29T06:06:10;3.10;1.00
38359;DHT22;42072;48.044;14.416;2024-03-29T06:08:43;3.20;1.00
38359;DHT22;42072;48.044;14.416;2024-03-29T06:11:09;3.50;1.00
38359;DHT22;42072;48.044;14.416;2024-03-29T06:13:35;3.70;1.00
38359;DHT22;42072;48.044;14.416;2024-03-29T06:16:20;3.90;1.00
38359;DHT22;42072;48.044;14.416;2024-03-29T06:19:23;4.10;1.00
38359;DHT22;42072;48.044;14.416;2024-03-29T06:22:08;4.30;1.00
38359;DHT22;42072;48.044;14.416;2024-03-29T06:24:35;4.60;1.00
38359;DHT22;42072;48.044;14.416;2024-03-29T06:27:01;4.80;1.00
38359;DHT22;42072;48.044;14.416;2024-03-29T06:29:27;5.00;99.90
38359;DHT22;42072;48.044;14.416;2024-03-29T06:31:53;5.30;99.90
38359;DHT22;42072;48.044;14.416;2024-03-29T06:34:19;5.40;99.90
38359;DHT22;42072;48.044;14.416;2024-03-29T06:36:44;5.60;99.90
38359;DHT22;42072;48.044;14.416;2024-03-29T06:39:10;5.70;95.70
38359;DHT22;42072;48.044;14.416;2024-03-29T06:41:37;5.70;34.60
38359;DHT22;42072;48.044;14.416;2024-03-29T06:44:02;5.80;1.00
38359;DHT22;42072;48.044;14.416;2024-03-29T06:46:29;5.80;1.00
38359;DHT22;42072;48.044;14.416;2024-03-29T06:48:54;5.90;1.00
38359;DHT22;42072;48.044;14.416;2024-03-29T06:51:20;6.10;1.00
38359;DHT22;42072;48.044;14.416;2024-03-29T06:54:04;6.30;1.00
38359;DHT22;42072;48.044;14.416;2024-03-29T06:56:49;6.60;99.90
38359;DHT22;42072;48.044;14.416;2024-03-29T06:59:33;6.90;99.90
38359;DHT22;42072;48.044;14.416;2024-03-29T07:02:18;7.10;99.90
38359;DHT22;42072;48.044;14.416;2024-03-29T07:04:43;7.30;99.90
38359;DHT22;42072;48.044;14.416;2024-03-29T07:07:09;7.60;38.80
38359;DHT22;42072;48.044;14.416;2024-03-29T07:09:35;7.80;1.00
38359;DHT22;42072;48.044;14.416;2024-03-29T07:12:01;8.10;1.00
38359;DHT22;42072;48.044;14.416;2024-03-29T07:14:46;8.30;1.00
38359;DHT22;42072;48.044;14.416;2024-03-29T07:17:12;8.50;1.00
38359;DHT22;42072;48.044;14.416;2024-03-29T07:19:38;8.60;1.00
38359;DHT22;42072;48.044;14.416;2024-03-29T07:22:04;8.70;1.00
38359;DHT22;42072;48.044;14.416;2024-03-29T07:24:30;8.80;99.90
38359;DHT22;42072;48.044;14.416;2024-03-29T07:26:56;8.90;99.90
38359;DHT22;42072;48.044;14.416;2024-03-29T07:29:22;8.90;99.90
38359;DHT22;42072;48.044;14.416;2024-03-29T07:31:48;9.10;99.90
38359;DHT22;42072;48.044;14.416;2024-03-29T07:34:14;9.20;99.90
38359;DHT22;42072;48.044;14.416;2024-03-29T07:36:40;9.30;99.90
38359;DHT22;42072;48.044;14.416;2024-03-29T07:39:06;9.40;99.90
38359;DHT22;42072;48.044;14.416;2024-03-29T07:41:51;9.50;99.90
38359;DHT22;42072;48.044;14.416;2024-03-29T07:44:35;9.60;99.90
38359;DHT22;42072;48.044;14.416;2024-03-29T07:47:22;9.70;99.90
38359;DHT22;42072;48.044;14.416;2024-03-29T07:50:11;9.90;99.90
38359;DHT22;42072;48.044;14.416;2024-03-29T07:52:56;10.00;99.90
38359;DHT22;42072;48.044;14.416;2024-03-29T07:55:41;10.00;99.90
38359;DHT22;42072;48.044;14.416;2024-03-29T07:58:07;10.20;99.90
38359;DHT22;42072;48.044;14.416;2024-03-29T08:00:34;10.40;99.90
38359;DHT22;42072;48.044;14.416;2024-03-29T08:03:00;10.50;99.90
38359;DHT22;42072;48.044;14.416;2024-03-29T08:05:27;10.60;99.90
38359;DHT22;42072;48.044;14.416;2024-03-29T08:07:53;10.70;99.90
38359;DHT22;42072;48.044;14.416;2024-03-29T08:10:20;10.70;99.90
38359;DHT22;42072;48.044;14.416;2024-03-29T08:12:46;10.80;99.90
38359;DHT22;42072;48.044;14.416;2024-03-29T08:15:12;11.00;99.90
38359;DHT22;42072;48.044;14.416;2024-03-29T08:17:38;11.20;99.90
38359;DHT22;42072;48.044;14.416;2024-03-29T08:20:22;11.30;99.90
38359;DHT22;42072;48.044;14.416;2024-03-29T08:23:13;11.30;99.90
38359;DHT22;42072;48.044;14.416;2024-03-29T08:25:39;11.30;99.90
38359;DHT22;42072;48.044;14.416;2024-03-29T08:28:05;11.40;99.90
38359;DHT22;42072;48.044;14.416;2024-03-29T08:30:59;11.40;99.90
38359;DHT22;42072;48.044;14.416;2024-03-29T08:33:43;11.60;99.90
38359;DHT22;42072;48.044;14.416;2024-03-29T08:36:09;11.60;99.90
38359;DHT22;42072;48.044;14.416;2024-03-29T08:38:37;11.70;99.90
38359;DHT22;42072;48.044;14.416;2024-03-29T08:41:23;11.80;99.90
38359;DHT22;42072;48.044;14.416;2024-03-29T08:43:49;12.10;99.90
38359;DHT22;42072;48.044;14.416;2024-03-29T08:46:15;12.20;99.90
38359;DHT22;42072;48.044;14.416;2024-03-29T08:48:59;12.30;99.90
38359;DHT22;42072;48.044;14.416;2024-03-29T08:51:25;12.50;99.90
38359;DHT22;42072;48.044;14.416;2024-03-29T08:53:51;12.60;99.90
38359;DHT22;42072;48.044;14.416;2024-03-29T08:56:17;12.70;99.90
38359;DHT22;42072;48.044;14.416;2024-03-29T08:59:01;12.80;99.90
38359;DHT22;42072;48.044;14.416;2024-03-29T09:01:47;13.00;99.90
38359;DHT22;42072;48.044;14.416;2024-03-29T09:04:16;13.20;99.90
38359;DHT22;42072;48.044;14.416;2024-03-29T09:07:00;13.40;99.90
38359;DHT22;42072;48.044;14.416;2024-03-29T09:09:49;13.60;99.90
38359;DHT22;42072;48.044;14.416;2024-03-29T09:12:33;13.90;99.90
38359;DHT22;42072;48.044;14.416;2024-03-29T09:14:59;14.20;99.90
38359;DHT22;42072;48.044;14.416;2024-03-29T09:17:25;14.50;99.90
38359;DHT22;42072;48.044;14.416;2024-03-29T09:19:51;14.80;99.90
38359;DHT22;42072;48.044;14.416;2024-03-29T09:22:17;15.00;99.90
38359;DHT22;42072;48.044;14.416;2024-03-29T09:24:44;15.40;99.90
38359;DHT22;42072;48.044;14.416;2024-03-29T09:27:10;15.70;99.90
38359;DHT22;42072;48.044;14.416;2024-03-29T09:29:36;15.50;99.90
38359;DHT22;42072;48.044;14.416;2024-03-29T09:32:02;15.60;99.90
38359;DHT22;42072;48.044;14.416;2024-03-29T09:34:46;15.70;99.90
38359;DHT22;42072;48.044;14.416;2024-03-29T09:37:12;15.80;99.90
38359;DHT22;42072;48.044;14.416;2024-03-29T09:39:38;16.10;99.90
38359;DHT22;42072;48.044;14.416;2024-03-29T09:42:04;16.30;99.90
38359;DHT22;42072;48.044;14.416;2024-03-29T09:44:32;16.40;99.90
38359;DHT22;42072;48.044;14.416;2024-03-29T09:46:59;16.60;99.90
38359;DHT22;42072;48.044;14.416;2024-03-29T09:49:46;16.70;99.90
38359;DHT22;42072;48.044;14.416;2024-03-29T09:52:13;16.70;99.90
38359;DHT22;42072;48.044;14.416;2024-03-29T09:54:40;16.90;99.90
38359;DHT22;42072;48.044;14.416;2024-03-29T09:57:06;16.90;97.40
38359;DHT22;42072;48.044;14.416;2024-03-29T09:59:50;17.10;95.90
38359;DHT22;42072;48.044;14.416;2024-03-29T10:02:35;17.30;94.90
38359;DHT22;42072;48.044;14.416;2024-03-29T10:05:01;17.40;90.20
38359;DHT22;42072;48.044;14.416;2024-03-29T10:07:32;17.30;90.40
38359;DHT22;42072;48.044;14.416;2024-03-29T10:10:00;17.60;90.90
38359;DHT22;42072;48.044;14.416;2024-03-29T10:12:27;17.80;88.80
38359;DHT22;42072;48.044;14.416;2024-03-29T10:14:53;18.40;79.20
38359;DHT22;42072;48.044;14.416;2024-03-29T10:17:24;18.70;73.80
38359;DHT22;42072;48.044;14.416;2024-03-29T10:19:51;18.90;69.00
38359;DHT22;42072;48.044;14.416;2024-03-29T10:22:17;18.90;60.80
38359;DHT22;42072;48.044;14.416;2024-03-29T10:25:01;19.10;63.60
38359;DHT22;42072;48.044;14.416;2024-03-29T10:27:27;19.20;52.80
38359;DHT22;42072;48.044;14.416;2024-03-29T10:29:53;19.20;53.60
38359;DHT22;42072;48.044;14.416;2024-03-29T10:32:19;19.20;51.90
38359;DHT22;42072;48.044;14.416;2024-03-29T10:34:45;19.20;53.80
38359;DHT22;42072;48.044;14.416;2024-03-29T10:37:11;19.10;53.20
38359;DHT22;42072;48.044;14.416;2024-03-29T10:39:37;19.10;54.70
38359;DHT22;42072;48.044;14.416;2024-03-29T10:42:07;19.40;54.10
38359;DHT22;42072;48.044;14.416;2024-03-29T10:44:37;19.40;60.20
38359;DHT22;42072;48.044;14.416;2024-03-29T10:47:23;19.40;53.00
38359;DHT22;42072;48.044;14.416;2024-03-29T10:49:50;19.50;51.90
38359;DHT22;42072;48.044;14.416;2024-03-29T10:52:17;19.70;51.70
38359;DHT22;42072;48.044;14.416;2024-03-29T10:54:44;19.70;50.20
38359;DHT22;42072;48.044;14.416;2024-03-29T10:57:12;20.10;48.80
38359;DHT22;42072;48.044;14.416;2024-03-29T11:00:15;20.20;45.70
38359;DHT22;42072;48.044;14.416;2024-03-29T11:05:09;19.90;46.30
38359;DHT22;42072;48.044;14.416;2024-03-29T11:07:55;20.00;47.10
38359;DHT22;42072;48.044;14.416;2024-03-29T11:10:25;20.20;43.90
38359;DHT22;42072;48.044;14.416;2024-03-29T11:15:46;20.10;45.90
38359;DHT22;42072;48.044;14.416;2024-03-29T11:18:13;19.70;47.10
38359;DHT22;42072;48.044;14.416;2024-03-29T11:20:42;19.70;50.00
38359;DHT22;42072;48.044;14.416;2024-03-29T11:23:13;19.60;51.00
38359;DHT22;42072;48.044;14.416;2024-03-29T11:25:40;19.30;54.40
38359;DHT22;42072;48.044;14.416;2024-03-29T11:28:07;19.10;57.30
38359;DHT22;42072;48.044;14.416;2024-03-29T11:31:08;19.10;60.60
38359;DHT22;42072;48.044;14.416;2024-03-29T11:33:45;18.80;62.70
38359;DHT22;42072;48.044;14.416;2024-03-29T11:39:02;18.70;70.40
38359;DHT22;42072;48.044;14.416;2024-03-29T11:41:28;18.80;73.60
38359;DHT22;42072;48.044;14.416;2024-03-29T11:43:56;18.90;73.00
38359;DHT22;42072;48.044;14.416;2024-03-29T11:46:22;19.20;73.60
38359;DHT22;42072;48.044;14.416;2024-03-29T11:49:07;19.30;72.60
38359;DHT22;42072;48.044;14.416;2024-03-29T11:51:33;19.30;71.60
38359;DHT22;42072;48.044;14.416;2024-03-29T11:54:02;19.50;72.60
38359;DHT22;42072;48.044;14.416;2024-03-29T11:56:28;20.10;68.00
38359;DHT22;42072;48.044;14.416;2024-03-29T11:58:54;20.20;64.80
38359;DHT22;42072;48.044;14.416;2024-03-29T12:01:28;20.30;63.10
38359;DHT22;42072;48.044;14.416;2024-03-29T12:03:55;20.40;58.90
38359;DHT22;42072;48.044;14.416;2024-03-29T12:06:21;20.60;54.10
38359;DHT22;42072;48.044;14.416;2024-03-29T12:09:06;20.50;49.90
38359;DHT22;42072;48.044;14.416;2024-03-29T12:11:33;20.40;51.30
38359;DHT22;42072;48.044;14.416;2024-03-29T12:13:59;20.30;50.50
38359;DHT22;42072;48.044;14.416;2024-03-29T12:16:44;20.50;50.20
38359;DHT22;42072;48.044;14.416;2024-03-29T12:19:30;20.60;52.90
38359;DHT22;42072;48.044;14.416;2024-03-29T12:21:58;20.80;48.20
38359;DHT22;42072;48.044;14.416;2024-03-29T12:24:24;21.00;50.10
38359;DHT22;42072;48.044;14.416;2024-03-29T12:27:09;21.40;45.60
38359;DHT22;42072;48.044;14.416;2024-03-29T12:29:53;21.70;38.20
38359;DHT22;42072;48.044;14.416;2024-03-29T12:32:20;21.80;38.10
38359;DHT22;42072;48.044;14.416;2024-03-29T12:34:46;21.70;40.30
38359;DHT22;42072;48.044;14.416;2024-03-29T12:37:12;21.90;34.80
38359;DHT22;42072;48.044;14.416;2024-03-29T12:39:41;22.00;34.00
38359;DHT22;42072;48.044;14.416;2024-03-29T12:42:08;21.60;35.20
38359;DHT22;42072;48.044;14.416;2024-03-29T12:44:34;21.20;36.90
38359;DHT22;42072;48.044;14.416;2024-03-29T12:47:00;21.00;41.60
38359;DHT22;42072;48.044;14.416;2024-03-29T12:49:45;20.90;44.30
38359;DHT22;42072;48.044;14.416;2024-03-29T12:52:41;20.90;48.40
38359;DHT22;42072;48.044;14.416;2024-03-29T12:55:08;20.80;46.90
38359;DHT22;42072;48.044;14.416;2024-03-29T12:57:37;21.00;48.90
38359;DHT22;42072;48.044;14.416;2024-03-29T13:00:04;20.90;44.60
38359;DHT22;42072;48.044;14.416;2024-03-29T13:02:37;20.90;48.60
38359;DHT22;42072;48.044;14.416;2024-03-29T13:05:04;20.80;52.20
38359;DHT22;42072;48.044;14.416;2024-03-29T13:10:14;20.90;52.00
38359;DHT22;42072;48.044;14.416;2024-03-29T13:12:45;21.00;50.80
38359;DHT22;42072;48.044;14.416;2024-03-29T13:15:17;21.00;48.50
38359;DHT22;42072;48.044;14.416;2024-03-29T13:17:43;21.10;49.10
38359;DHT22;42072;48.044;14.416;2024-03-29T13:20:09;21.10;47.00
38359;DHT22;42072;48.044;14.416;2024-03-29T13:22:36;21.10;49.10
38359;DHT22;42072;48.044;14.416;2024-03-29T13:25:03;21.10;48.80
38359;DHT22;42072;48.044;14.416;2024-03-29T13:27:31;21.00;50.00
38359;DHT22;42072;48.044;14.416;2024-03-29T13:29:57;20.90;49.40
38359;DHT22;42072;48.044;14.416;2024-03-29T13:32:23;20.80;51.40
38359;DHT22;42072;48.044;14.416;2024-03-29T13:34:49;20.80;60.30
38359;DHT22;42072;48.044;14.416;2024-03-29T13:37:15;20.90;54.40
38359;DHT22;42072;48.044;14.416;2024-03-29T13:39:59;21.10;54.90
38359;DHT22;42072;48.044;14.416;2024-03-29T13:42:25;21.20;53.30
38359;DHT22;42072;48.044;14.416;2024-03-29T13:44:51;21.30;51.50
38359;DHT22;42072;48.044;14.416;2024-03-29T13:47:19;21.30;51.10
38359;DHT22;42072;48.044;14.416;2024-03-29T13:49:45;21.50;51.00
38359;DHT22;42072;48.044;14.416;2024-03-29T13:52:29;21.50;49.20
38359;DHT22;42072;48.044;14.416;2024-03-29T13:54:56;21.60;47.10
38359;DHT22;42072;48.044;14.416;2024-03-29T13:57:22;21.80;44.00
38359;DHT22;42072;48.044;14.416;2024-03-29T13:59:48;22.00;42.50
38359;DHT22;42072;48.044;14.416;2024-03-29T14:02:15;22.10;35.80
38359;DHT22;42072;48.044;14.416;2024-03-29T14:04:42;22.30;26.20
38359;DHT22;42072;48.044;14.416;2024-03-29T14:07:09;22.40;22.10
38359;DHT22;42072;48.044;14.416;2024-03-29T14:09:54;22.50;19.10
38359;DHT22;42072;48.044;14.416;2024-03-29T14:12:38;22.60;36.40
38359;DHT22;42072;48.044;14.416;2024-03-29T14:15:23;22.50;43.20
38359;DHT22;42072;48.044;14.416;2024-03-29T14:17:49;22.40;42.40
38359;DHT22;42072;48.044;14.416;2024-03-29T14:20:17;22.50;39.80
38359;DHT22;42072;48.044;14.416;2024-03-29T14:23:01;22.50;35.30
38359;DHT22;42072;48.044;14.416;2024-03-29T14:25:32;22.50;28.90
38359;DHT22;42072;48.044;14.416;2024-03-29T14:27:58;22.50;19.10
38359;DHT22;42072;48.044;14.416;2024-03-29T14:30:25;22.60;22.20
38359;DHT22;42072;48.044;14.416;2024-03-29T14:32:51;22.70;32.70
38359;DHT22;42072;48.044;14.416;2024-03-29T14:35:17;22.60;31.90
38359;DHT22;42072;48.044;14.416;2024-03-29T14:37:43;22.60;25.40
38359;DHT22;42072;48.044;14.416;2024-03-29T14:40:10;22.60;20.60
38359;DHT22;42072;48.044;14.416;2024-03-29T14:42:41;22.60;19.20
38359;DHT22;42072;48.044;14.416;2024-03-29T14:45:08;22.70;16.90
38359;DHT22;42072;48.044;14.416;2024-03-29T14:47:37;22.60;9.80
38359;DHT22;42072;48.044;14.416;2024-03-29T14:50:04;22.60;11.50
38359;DHT22;42072;48.044;14.416;2024-03-29T14:52:31;22.50;4.90
38359;DHT22;42072;48.044;14.416;2024-03-29T14:54:57;22.60;7.10
38359;DHT22;42072;48.044;14.416;2024-03-29T14:57:23;22.60;1.00
38359;DHT22;42072;48.044;14.416;2024-03-29T14:59:49;22.50;1.00
38359;DHT22;42072;48.044;14.416;2024-03-29T15:02:15;22.40;1.60
38359;DHT22;42072;48.044;14.416;2024-03-29T15:04:41;22.50;1.00
38359;DHT22;42072;48.044;14.416;2024-03-29T15:07:07;22.40;1.00
38359;DHT22;42072;48.044;14.416;2024-03-29T15:09:34;22.50;1.00
38359;DHT22;42072;48.044;14.416;2024-03-29T15:12:03;22.50;1.00
38359;DHT22;42072;48.044;14.416;2024-03-29T15:14:29;22.60;1.00
38359;DHT22;42072;48.044;14.416;2024-03-29T15:16:56;22.70;1.00
38359;DHT22;42072;48.044;14.416;2024-03-29T15:19:22;22.90;1.00
38359;DHT22;42072;48.044;14.416;2024-03-29T15:21:48;23.00;1.00
38359;DHT22;42072;48.044;14.416;2024-03-29T15:24:15;23.10;1.00
38359;DHT22;42072;48.044;14.416;2024-03-29T15:26:41;23.20;1.00
38359;DHT22;42072;48.044;14.416;2024-03-29T15:29:07;23.30;1.00
38359;DHT22;42072;48.044;14.416;2024-03-29T15:31:52;23.40;1.00
38359;DHT22;42072;48.044;14.416;2024-03-29T15:34:20;23.40;1.00
38359;DHT22;42072;48.044;14.416;2024-03-29T15:37:04;23.40;1.00
38359;DHT22;42072;48.044;14.416;2024-03-29T15:39:30;23.30;1.00
38359;DHT22;42072;48.044;14.416;2024-03-29T15:41:56;23.20;1.00
38359;DHT22;42072;48.044;14.416;2024-03-29T15:44:22;23.10;1.00
38359;DHT22;42072;48.044;14.416;2024-03-29T15:46:48;23.00;1.00
38359;DHT22;42072;48.044;14.416;2024-03-29T15:49:14;22.80;1.00
38359;DHT22;42072;48.044;14.416;2024-03-29T15:51:58;22.60;1.00
38359;DHT22;42072;48.044;14.416;2024-03-29T15:54:24;22.50;1.00
38359;DHT22;42072;48.044;14.416;2024-03-29T15:56:52;22.40;1.00
38359;DHT22;42072;48.044;14.416;2024-03-29T15:59:19;22.30;1.00
38359;DHT22;42072;48.044;14.416;2024-03-29T16:01:45;22.20;1.00
38359;DHT22;42072;48.044;14.416;2024-03-29T16:04:29;22.00;1.00